Time;durP1;ratioP1;P1;durP2;ratioP2;P2;SDS_P1;SDS_P2;PMS_P1;PMS_P2;Temp;Humidity;BMP_temperature;BMP_pressure;BME280_temperature;BME280_humidity;BME280_pressure;Samples;Min_cycle;Max_cycle;Signal;HPM_P1;HPM_P2
2022/06/09 00:01:06;;;;;;;0.40;0.20;;;15.00;99.90;;;;;;4962055;28;20483;-84
2022/06/09 00:03:39;;;;;;;0.73;0.20;;;14.90;99.90;;;;;;4965856;28;21034;-84
2022/06/09 00:06:09;;;;;;;0.30;0.20;;;14.90;99.90;;;;;;4961093;28;20491;-84
2022/06/09 00:08:38;;;;;;;0.40;0.20;;;14.90;99.90;;;;;;4966622;28;20479;-85
2022/06/09 00:11:07;;;;;;;0.40;0.30;;;14.90;99.90;;;;;;4969701;28;20511;-84
2022/06/09 00:13:38;;;;;;;0.40;0.20;;;14.80;99.90;;;;;;4969945;28;20476;-84
2022/06/09 00:16:06;;;;;;;0.60;0.40;;;14.80;99.90;;;;;;4970729;28;20466;-85
2022/06/09 00:18:33;;;;;;;0.50;0.30;;;14.80;99.90;;;;;;4967980;28;20473;-84
2022/06/09 00:21:01;;;;;;;0.40;0.20;;;14.80;99.90;;;;;;4953878;28;21044;-84
2022/06/09 00:23:28;;;;;;;0.40;0.20;;;14.90;99.90;;;;;;4960828;28;20696;-84
2022/06/09 00:25:55;;;;;;;0.50;0.30;;;14.90;99.90;;;;;;4958277;28;20545;-85
2022/06/09 00:28:22;;;;;;;0.37;0.20;;;14.90;99.90;;;;;;4965812;28;20973;-85
2022/06/09 00:30:50;;;;;;;0.40;0.30;;;14.90;99.90;;;;;;4959312;28;20578;-84
2022/06/09 00:33:18;;;;;;;0.40;0.20;;;14.90;99.90;;;;;;4955471;28;20481;-84
2022/06/09 00:35:45;;;;;;;0.30;0.20;;;14.80;99.90;;;;;;4980774;28;20470;-85
2022/06/09 00:38:13;;;;;;;0.40;0.20;;;14.80;99.90;;;;;;4953716;28;20464;-85
2022/06/09 00:40:40;;;;;;;0.40;0.20;;;14.70;99.90;;;;;;4953178;28;20496;-84
2022/06/09 00:43:08;;;;;;;0.50;0.30;;;14.60;99.90;;;;;;4961109;28;20476;-84
2022/06/09 00:45:37;;;;;;;0.60;0.20;;;14.60;99.90;;;;;;4963921;28;20533;-85
2022/06/09 00:48:22;;;;;;;0.40;0.30;;;14.60;99.90;;;;;;4959115;28;20465;-84
2022/06/09 00:50:52;;;;;;;0.40;0.20;;;14.60;99.90;;;;;;4960249;28;20565;-85
2022/06/09 00:53:22;;;;;;;0.40;0.20;;;14.60;99.90;;;;;;4958384;28;20873;-84
2022/06/09 00:55:50;;;;;;;0.53;0.30;;;14.60;99.90;;;;;;4952283;28;20523;-85
2022/06/09 00:58:22;;;;;;;0.30;0.20;;;14.60;99.90;;;;;;4959386;28;20496;-84
2022/06/09 01:00:52;;;;;;;0.80;0.23;;;14.60;99.90;;;;;;4958123;28;20954;-84
2022/06/09 01:03:25;;;;;;;0.30;0.20;;;14.60;99.90;;;;;;4952565;28;20510;-85
2022/06/09 01:05:55;;;;;;;0.40;0.23;;;14.60;99.90;;;;;;4954847;28;20542;-84
2022/06/09 01:08:22;;;;;;;2.30;0.33;;;14.60;99.90;;;;;;4953987;28;20623;-84
2022/06/09 01:10:49;;;;;;;0.40;0.30;;;14.50;99.90;;;;;;4953438;28;20575;-84
2022/06/09 01:13:16;;;;;;;0.40;0.20;;;14.50;99.90;;;;;;4954981;28;20532;-84
2022/06/09 01:15:51;;;;;;;0.50;0.30;;;14.60;99.90;;;;;;4953898;28;20628;-84
2022/06/09 01:18:31;;;;;;;0.60;0.30;;;14.60;99.90;;;;;;4956827;28;20477;-84
2022/06/09 01:21:06;;;;;;;0.40;0.20;;;14.60;99.90;;;;;;4961182;28;20557;-84
2022/06/09 01:24:12;;;;;;;0.40;0.20;;;14.60;99.90;;;;;;4955388;28;20461;-84
2022/06/09 01:27:15;;;;;;;0.50;0.30;;;14.60;99.90;;;;;;4957383;28;20465;-84
2022/06/09 01:29:50;;;;;;;0.40;0.20;;;14.60;99.90;;;;;;4965728;28;20472;-84
2022/06/09 01:32:27;;;;;;;0.40;0.30;;;14.60;99.90;;;;;;4964513;28;20484;-84
2022/06/09 01:35:05;;;;;;;0.40;0.30;;;14.60;99.90;;;;;;4958822;28;20470;-84
2022/06/09 01:37:38;;;;;;;1.23;0.30;;;14.60;99.90;;;;;;4955981;28;20479;-85
2022/06/09 01:40:07;;;;;;;0.40;0.27;;;14.60;99.90;;;;;;4960413;28;20495;-84
2022/06/09 01:42:36;;;;;;;0.67;0.30;;;14.50;99.90;;;;;;4957309;28;20465;-84
2022/06/09 01:45:09;;;;;;;0.37;0.20;;;14.50;99.90;;;;;;4956064;28;20481;-84
2022/06/09 01:47:44;;;;;;;0.53;0.37;;;14.50;99.90;;;;;;4957694;28;20517;-84
2022/06/09 01:50:15;;;;;;;0.50;0.30;;;14.50;99.90;;;;;;4955610;28;20470;-84
2022/06/09 01:52:44;;;;;;;0.40;0.30;;;14.40;99.90;;;;;;4954590;28;20496;-84
2022/06/09 01:55:18;;;;;;;0.50;0.30;;;14.40;99.90;;;;;;4954407;28;20469;-84
2022/06/09 01:57:49;;;;;;;0.40;0.30;;;14.50;99.90;;;;;;4947448;28;20490;-84
2022/06/09 02:00:19;;;;;;;0.40;0.27;;;14.40;99.90;;;;;;4957382;28;20526;-84
2022/06/09 02:02:50;;;;;;;0.40;0.20;;;14.50;99.90;;;;;;4958460;28;20479;-84
2022/06/09 02:05:22;;;;;;;0.40;0.20;;;14.40;99.90;;;;;;4958827;28;21176;-84
2022/06/09 02:07:51;;;;;;;0.70;0.30;;;14.50;99.90;;;;;;4959648;28;20467;-85
2022/06/09 02:10:23;;;;;;;0.40;0.27;;;14.50;99.90;;;;;;4952010;28;20462;-84
2022/06/09 02:12:51;;;;;;;0.30;0.20;;;14.50;99.90;;;;;;4953417;28;20600;-84
2022/06/09 02:15:27;;;;;;;0.50;0.30;;;14.60;99.90;;;;;;4963994;28;20485;-84
2022/06/09 02:17:55;;;;;;;1.43;0.50;;;14.60;99.90;;;;;;4962648;28;20980;-84
2022/06/09 02:20:24;;;;;;;0.40;0.20;;;14.60;99.90;;;;;;4958081;28;20532;-84
2022/06/09 02:22:51;;;;;;;0.40;0.30;;;14.60;99.90;;;;;;4960475;28;20480;-84
2022/06/09 02:25:19;;;;;;;0.40;0.20;;;14.50;99.90;;;;;;4961713;28;20571;-84
2022/06/09 02:27:46;;;;;;;0.40;0.30;;;14.50;99.90;;;;;;4954757;28;20474;-85
2022/06/09 02:30:14;;;;;;;0.40;0.20;;;14.50;99.90;;;;;;4962895;28;20472;-84
2022/06/09 02:32:41;;;;;;;0.40;0.30;;;14.50;99.90;;;;;;4954801;28;20500;-84
2022/06/09 02:35:10;;;;;;;0.70;0.27;;;14.50;99.90;;;;;;4947428;28;20473;-84
2022/06/09 02:37:37;;;;;;;0.90;0.30;;;14.50;99.90;;;;;;4953089;28;20558;-83
2022/06/09 02:40:05;;;;;;;0.40;0.30;;;14.50;99.90;;;;;;4958592;28;20484;-84
2022/06/09 02:42:32;;;;;;;0.60;0.30;;;14.50;99.90;;;;;;4960561;28;20481;-84
2022/06/09 02:44:59;;;;;;;0.50;0.30;;;14.50;99.90;;;;;;4963304;28;20469;-84
2022/06/09 02:47:26;;;;;;;0.40;0.30;;;14.50;99.90;;;;;;4954082;28;20469;-84
2022/06/09 02:49:53;;;;;;;0.60;0.30;;;14.50;99.90;;;;;;4954999;28;20512;-84
2022/06/09 02:52:22;;;;;;;0.40;0.20;;;14.50;99.90;;;;;;4960704;28;20501;-84
2022/06/09 02:54:49;;;;;;;0.40;0.30;;;14.50;99.90;;;;;;4959764;28;20466;-84
2022/06/09 02:57:16;;;;;;;0.40;0.30;;;14.60;99.90;;;;;;4949420;28;21047;-84
2022/06/09 02:59:43;;;;;;;0.30;0.20;;;14.60;99.90;;;;;;4958526;28;20515;-84
2022/06/09 03:02:10;;;;;;;0.40;0.27;;;14.60;99.90;;;;;;4960340;28;20966;-84
2022/06/09 03:04:37;;;;;;;0.47;0.30;;;14.60;99.90;;;;;;4951539;28;20940;-84
2022/06/09 03:07:05;;;;;;;0.33;0.20;;;14.60;99.90;;;;;;4959258;28;20556;-84
2022/06/09 03:09:33;;;;;;;0.40;0.30;;;14.60;99.90;;;;;;4964071;28;20470;-84
2022/06/09 03:12:00;;;;;;;0.40;0.30;;;14.60;99.90;;;;;;4960216;28;21060;-84
2022/06/09 03:14:27;;;;;;;0.40;0.30;;;14.60;99.90;;;;;;4961614;28;20499;-83
2022/06/09 03:16:54;;;;;;;0.40;0.30;;;14.60;99.90;;;;;;4962473;28;20479;-85
2022/06/09 03:19:21;;;;;;;0.50;0.33;;;14.50;99.90;;;;;;4955347;28;20528;-84
2022/06/09 03:21:48;;;;;;;0.60;0.37;;;14.50;99.90;;;;;;4964785;28;20456;-84
2022/06/09 03:24:15;;;;;;;0.70;0.30;;;14.50;99.90;;;;;;4954356;28;20486;-84
2022/06/09 03:26:44;;;;;;;0.40;0.20;;;14.50;99.90;;;;;;4964957;28;20493;-84
2022/06/09 03:29:11;;;;;;;0.40;0.30;;;14.50;99.90;;;;;;4949280;28;20464;-84
2022/06/09 03:31:38;;;;;;;0.40;0.30;;;14.60;99.90;;;;;;4948439;28;20488;-84
2022/06/09 03:34:05;;;;;;;1.40;0.40;;;14.60;99.90;;;;;;4961054;28;20498;-84
2022/06/09 03:36:32;;;;;;;0.30;0.20;;;14.50;99.90;;;;;;4962577;28;20522;-84
2022/06/09 03:39:01;;;;;;;0.37;0.20;;;14.60;99.90;;;;;;4960469;28;20533;-84
2022/06/09 03:41:28;;;;;;;0.40;0.30;;;14.50;99.90;;;;;;4950372;28;20475;-84
2022/06/09 03:43:56;;;;;;;0.30;0.30;;;14.50;99.90;;;;;;4962910;28;20465;-83
2022/06/09 03:46:23;;;;;;;0.40;0.27;;;14.50;99.90;;;;;;4955822;28;21198;-84
2022/06/09 03:48:50;;;;;;;0.40;0.30;;;14.60;99.90;;;;;;4958506;28;20487;-83
2022/06/09 03:51:17;;;;;;;0.50;0.50;;;14.60;99.90;;;;;;4958975;28;20464;-84
2022/06/09 03:53:44;;;;;;;1.60;0.30;;;14.60;99.90;;;;;;4959992;28;20461;-84
2022/06/09 03:56:16;;;;;;;0.37;0.20;;;14.60;99.90;;;;;;4957628;28;21092;-84
2022/06/09 03:58:43;;;;;;;0.40;0.30;;;14.60;99.90;;;;;;4959929;28;20548;-84
2022/06/09 04:01:13;;;;;;;0.40;0.30;;;14.60;99.90;;;;;;4963420;28;20474;-84
2022/06/09 04:03:41;;;;;;;0.30;0.20;;;14.60;99.90;;;;;;4959320;28;20487;-84
2022/06/09 04:06:10;;;;;;;8.63;0.30;;;14.60;99.90;;;;;;4962386;28;20469;-83
2022/06/09 04:08:37;;;;;;;0.40;0.20;;;14.60;99.90;;;;;;4960055;28;20464;-84
2022/06/09 04:11:04;;;;;;;0.40;0.30;;;14.60;99.90;;;;;;4962551;28;20491;-85
2022/06/09 04:13:31;;;;;;;0.33;0.20;;;14.60;99.90;;;;;;4960478;28;20467;-85
2022/06/09 04:15:59;;;;;;;0.40;0.20;;;14.60;99.90;;;;;;4958032;28;20538;-85
2022/06/09 04:18:27;;;;;;;0.50;0.30;;;14.70;99.90;;;;;;4963281;28;20464;-85
2022/06/09 04:20:54;;;;;;;0.40;0.30;;;14.70;99.90;;;;;;4961247;28;20568;-85
2022/06/09 04:23:21;;;;;;;0.40;0.30;;;14.70;99.90;;;;;;4960308;28;20476;-85
2022/06/09 04:25:48;;;;;;;0.47;0.20;;;14.80;99.90;;;;;;4962911;28;20706;-86
2022/06/09 04:28:16;;;;;;;0.40;0.20;;;14.80;99.90;;;;;;4960824;28;20470;-85
2022/06/09 04:30:43;;;;;;;1.27;0.30;;;14.90;99.90;;;;;;4962254;28;20473;-85
2022/06/09 04:33:10;;;;;;;0.77;0.40;;;14.90;99.90;;;;;;4961572;28;20574;-85
2022/06/09 04:35:38;;;;;;;0.40;0.20;;;14.90;99.90;;;;;;4957149;28;20472;-84
2022/06/09 04:38:07;;;;;;;1.07;0.40;;;14.90;99.90;;;;;;4961513;28;20450;-85
2022/06/09 04:40:38;;;;;;;1.83;0.40;;;14.90;99.90;;;;;;4956193;28;20507;-86
2022/06/09 04:43:07;;;;;;;1.53;0.30;;;14.80;99.90;;;;;;4958319;28;21015;-86
2022/06/09 04:45:35;;;;;;;1.33;0.30;;;14.80;99.90;;;;;;4959589;28;20992;-84
2022/06/09 04:48:02;;;;;;;0.30;0.20;;;14.90;99.90;;;;;;4955867;28;20979;-84
2022/06/09 04:50:30;;;;;;;0.30;0.20;;;14.90;99.90;;;;;;4959575;28;20528;-83
2022/06/09 04:52:59;;;;;;;0.40;0.20;;;14.90;99.90;;;;;;4960097;28;20493;-83
2022/06/09 04:55:27;;;;;;;0.30;0.20;;;15.00;99.90;;;;;;4961202;28;20934;-84
2022/06/09 04:57:54;;;;;;;0.40;0.30;;;15.00;99.90;;;;;;4956808;28;20857;-84
2022/06/09 05:00:21;;;;;;;0.40;0.20;;;15.10;99.90;;;;;;4959199;28;20480;-84
2022/06/09 05:02:50;;;;;;;0.30;0.20;;;15.10;99.90;;;;;;4955397;28;20479;-84
2022/06/09 05:05:20;;;;;;;0.30;0.20;;;15.10;99.90;;;;;;4954854;28;20519;-84
2022/06/09 05:07:47;;;;;;;0.30;0.20;;;15.20;99.90;;;;;;4958122;28;21015;-84
2022/06/09 05:10:18;;;;;;;0.40;0.30;;;15.30;99.90;;;;;;4961469;28;20874;-84
2022/06/09 05:12:45;;;;;;;0.40;0.30;;;15.40;99.90;;;;;;4962371;28;21255;-84
2022/06/09 05:15:14;;;;;;;5.40;0.27;;;15.60;99.90;;;;;;4963384;28;20938;-85
2022/06/09 05:17:41;;;;;;;1.93;1.03;;;15.90;99.90;;;;;;4959175;28;20557;-84
2022/06/09 05:20:11;;;;;;;1.33;0.30;;;15.90;99.90;;;;;;4949477;28;20471;-84
2022/06/09 05:22:38;;;;;;;0.40;0.20;;;16.00;99.90;;;;;;4960125;28;20482;-84
2022/06/09 05:28:29;;;;;;;0.40;0.20;;;16.00;99.90;;;;;;4963554;28;20449;-83
2022/06/09 05:30:57;;;;;;;0.30;0.20;;;16.10;99.90;;;;;;4965461;28;20548;-83
2022/06/09 05:33:24;;;;;;;0.30;0.20;;;16.40;99.90;;;;;;4960812;28;20540;-83
2022/06/09 05:35:51;;;;;;;0.40;0.30;;;16.50;99.90;;;;;;4954421;28;20996;-83
2022/06/09 05:46:41;;;;;;;0.30;0.20;;;16.70;99.90;;;;;;4955755;28;20977;-83
2022/06/09 05:49:09;;;;;;;0.40;0.20;;;16.70;99.90;;;;;;4956407;28;20459;-84
2022/06/09 05:51:37;;;;;;;0.30;0.20;;;16.60;99.90;;;;;;4951175;28;20470;-83
2022/06/09 05:54:04;;;;;;;0.30;0.20;;;16.60;99.90;;;;;;4950787;28;20470;-83
2022/06/09 05:56:32;;;;;;;0.30;0.20;;;16.50;99.90;;;;;;4955571;28;20629;-83
2022/06/09 05:59:00;;;;;;;0.30;0.20;;;16.60;99.90;;;;;;4959827;28;20549;-84
2022/06/09 06:01:28;;;;;;;0.50;0.30;;;16.40;99.90;;;;;;4949640;28;21291;-83
2022/06/09 06:03:55;;;;;;;0.30;0.20;;;16.50;99.90;;;;;;4954942;28;20476;-83
2022/06/09 06:06:37;;;;;;;0.30;0.20;;;16.50;99.90;;;;;;4956538;28;20480;-84
2022/06/09 06:09:06;;;;;;;0.63;0.30;;;16.10;99.90;;;;;;4961505;28;20480;-83
2022/06/09 06:11:34;;;;;;;0.40;0.30;;;16.10;99.90;;;;;;4958975;28;20854;-83
2022/06/09 06:14:03;;;;;;;0.37;0.27;;;16.10;99.90;;;;;;4958819;28;20498;-82
2022/06/09 06:16:32;;;;;;;0.40;0.20;;;15.90;99.90;;;;;;4958424;28;20470;-84
2022/06/09 06:18:59;;;;;;;0.50;0.30;;;16.00;99.90;;;;;;4957021;28;20471;-84
2022/06/09 06:21:26;;;;;;;0.40;0.20;;;16.00;99.90;;;;;;4955341;28;20482;-83
2022/06/09 06:23:55;;;;;;;0.40;0.20;;;15.80;99.90;;;;;;4952470;28;20473;-84
2022/06/09 06:26:22;;;;;;;0.97;0.30;;;15.90;99.90;;;;;;4954859;28;20482;-83
2022/06/09 06:28:50;;;;;;;0.30;0.20;;;15.90;99.90;;;;;;4951266;28;20475;-84
2022/06/09 06:31:19;;;;;;;0.30;0.20;;;15.80;99.90;;;;;;4958377;28;20471;-84
2022/06/09 06:33:46;;;;;;;0.50;0.30;;;15.70;99.90;;;;;;4958578;28;20557;-83
2022/06/09 06:36:13;;;;;;;0.30;0.20;;;15.60;99.90;;;;;;4962108;28;20474;-83
2022/06/09 06:38:41;;;;;;;0.43;0.23;;;15.60;99.90;;;;;;4961115;28;20464;-84
2022/06/09 06:41:10;;;;;;;1.87;0.30;;;15.60;99.90;;;;;;4952974;28;20470;-84
2022/06/09 06:43:37;;;;;;;0.40;0.20;;;15.60;99.90;;;;;;4958229;28;20472;-84
2022/06/09 06:46:04;;;;;;;0.30;0.20;;;15.80;99.90;;;;;;4954057;28;20467;-84
2022/06/09 06:48:34;;;;;;;0.40;0.20;;;15.70;99.90;;;;;;4958061;28;20474;-84
2022/06/09 06:51:02;;;;;;;0.30;0.20;;;15.80;99.90;;;;;;4962128;28;20490;-84
2022/06/09 06:53:29;;;;;;;0.37;0.20;;;16.00;99.90;;;;;;4964114;28;20490;-84
2022/06/09 06:55:56;;;;;;;0.40;0.20;;;16.00;99.90;;;;;;4961603;28;20450;-84
2022/06/09 06:58:23;;;;;;;0.40;0.20;;;16.10;99.90;;;;;;4960405;28;20497;-84
2022/06/09 07:00:50;;;;;;;0.40;0.20;;;16.40;99.90;;;;;;4956200;28;20472;-84
2022/06/09 07:03:17;;;;;;;0.30;0.20;;;16.30;99.90;;;;;;4956603;28;20482;-84
2022/06/09 07:05:46;;;;;;;0.40;0.20;;;16.30;99.90;;;;;;4955720;28;20517;-84
2022/06/09 07:08:15;;;;;;;0.40;0.20;;;16.40;99.90;;;;;;4954607;28;20477;-84
2022/06/09 07:10:43;;;;;;;0.40;0.20;;;16.40;99.90;;;;;;4951585;28;20534;-84
2022/06/09 07:13:10;;;;;;;0.40;0.30;;;16.40;99.90;;;;;;4956546;28;20499;-84
2022/06/09 07:15:37;;;;;;;0.40;0.20;;;16.40;99.90;;;;;;4953780;28;20475;-84
2022/06/09 07:18:05;;;;;;;0.30;0.20;;;16.10;99.90;;;;;;4953079;28;20476;-84
2022/06/09 07:20:32;;;;;;;0.40;0.30;;;16.00;99.90;;;;;;4954368;28;20530;-84
2022/06/09 07:23:00;;;;;;;0.40;0.20;;;15.60;99.90;;;;;;4954223;28;20478;-84
2022/06/09 07:25:28;;;;;;;0.40;0.30;;;15.50;99.90;;;;;;4960606;28;20566;-84
2022/06/09 07:27:56;;;;;;;1.90;0.30;;;15.50;99.90;;;;;;4963816;28;20521;-84
2022/06/09 07:30:25;;;;;;;0.40;0.20;;;15.40;99.90;;;;;;4960554;28;20465;-84
2022/06/09 07:32:52;;;;;;;0.40;0.20;;;15.40;99.90;;;;;;4957198;28;20563;-84
2022/06/09 07:35:23;;;;;;;0.60;0.33;;;15.30;99.90;;;;;;4957932;28;20472;-84
2022/06/09 07:37:50;;;;;;;0.40;0.30;;;15.40;99.90;;;;;;4952034;28;20466;-84
2022/06/09 07:40:18;;;;;;;0.40;0.20;;;15.50;99.90;;;;;;4955882;28;20472;-84
2022/06/09 07:42:45;;;;;;;0.40;0.20;;;15.60;99.90;;;;;;4953968;28;21068;-84
2022/06/09 07:45:13;;;;;;;0.40;0.30;;;15.70;99.90;;;;;;4952060;28;20479;-84
2022/06/09 07:47:40;;;;;;;0.43;0.30;;;15.50;99.90;;;;;;4963100;28;20926;-84
2022/06/09 07:50:09;;;;;;;0.40;0.20;;;15.40;99.90;;;;;;4962471;28;20464;-84
2022/06/09 07:52:36;;;;;;;0.40;0.37;;;15.30;99.90;;;;;;4954296;28;20599;-84
2022/06/09 07:55:05;;;;;;;0.40;0.30;;;15.20;99.90;;;;;;4955343;28;20469;-83
2022/06/09 07:57:34;;;;;;;1.70;0.30;;;15.00;99.90;;;;;;4952247;28;20537;-84
2022/06/09 08:00:03;;;;;;;0.67;0.30;;;14.80;99.90;;;;;;4958121;28;20618;-84
2022/06/09 08:02:31;;;;;;;0.40;0.40;;;14.70;99.90;;;;;;4958699;28;20815;-83
2022/06/09 08:04:57;;;;;;;0.40;0.30;;;14.70;99.90;;;;;;4960408;28;21320;-83
2022/06/09 08:07:25;;;;;;;0.40;0.27;;;14.60;99.90;;;;;;4955130;28;20468;-83
2022/06/09 08:09:52;;;;;;;0.57;0.30;;;14.60;99.90;;;;;;4953575;28;20480;-84
2022/06/09 08:12:19;;;;;;;0.40;0.20;;;14.40;99.90;;;;;;4954584;28;20888;-84
2022/06/09 08:14:48;;;;;;;0.40;0.20;;;14.30;99.90;;;;;;4956797;28;20614;-83
2022/06/09 08:17:15;;;;;;;0.40;0.40;;;14.30;99.90;;;;;;4955275;28;20475;-83
2022/06/09 08:19:42;;;;;;;0.40;0.30;;;14.30;99.90;;;;;;4952768;28;20484;-84
2022/06/09 08:22:09;;;;;;;0.40;0.30;;;14.20;99.90;;;;;;4951837;28;20560;-84
2022/06/09 08:24:36;;;;;;;0.40;0.30;;;14.20;99.90;;;;;;4962110;28;20475;-83
2022/06/09 08:27:04;;;;;;;0.40;0.30;;;14.30;99.90;;;;;;4954352;28;20473;-84
2022/06/09 08:29:31;;;;;;;0.40;0.40;;;14.40;99.90;;;;;;4959210;28;20475;-84
2022/06/09 08:32:00;;;;;;;0.50;0.40;;;14.40;99.90;;;;;;4957112;28;20487;-86
2022/06/09 08:34:28;;;;;;;0.40;0.30;;;14.40;99.90;;;;;;4970143;28;20490;-83
2022/06/09 08:36:55;;;;;;;0.40;0.30;;;14.40;99.90;;;;;;4958790;28;20542;-84
2022/06/09 08:39:22;;;;;;;0.40;0.20;;;14.40;99.90;;;;;;4963139;28;20468;-84
2022/06/09 08:41:59;;;;;;;0.50;0.40;;;14.60;99.90;;;;;;4957261;28;20486;-84
2022/06/09 08:44:34;;;;;;;0.50;0.33;;;14.60;99.90;;;;;;4959430;28;20480;-84
2022/06/09 08:47:09;;;;;;;0.40;0.40;;;14.70;99.90;;;;;;4959991;28;20483;-85
2022/06/09 08:49:58;;;;;;;0.40;0.20;;;14.80;99.90;;;;;;4962441;28;20471;-84
2022/06/09 08:52:42;;;;;;;0.40;0.30;;;14.70;99.90;;;;;;4960518;28;20538;-85
2022/06/09 08:55:20;;;;;;;0.40;0.30;;;14.90;99.90;;;;;;4961702;28;20457;-84
2022/06/09 08:57:50;;;;;;;0.40;0.33;;;15.00;99.90;;;;;;4962156;28;20482;-84
2022/06/09 09:00:22;;;;;;;0.50;0.20;;;15.10;99.90;;;;;;4966953;28;21184;-85
2022/06/09 09:02:57;;;;;;;0.50;0.40;;;15.40;99.90;;;;;;4962528;28;20489;-84
2022/06/09 09:05:30;;;;;;;0.40;0.30;;;15.30;99.90;;;;;;4962030;28;20459;-84
2022/06/09 09:08:00;;;;;;;0.30;0.20;;;15.30;99.90;;;;;;4960955;28;20456;-84
2022/06/09 09:10:40;;;;;;;0.40;0.30;;;15.30;99.90;;;;;;4964757;28;20467;-88
2022/06/09 09:13:25;;;;;;;0.40;0.30;;;15.40;99.90;;;;;;4961315;28;20657;-86
2022/06/09 09:15:55;;;;;;;0.40;0.30;;;15.40;99.90;;;;;;4962073;28;20545;-86
2022/06/09 09:18:35;;;;;;;0.40;0.30;;;15.50;99.90;;;;;;4958540;28;20548;-85
2022/06/09 09:21:25;;;;;;;0.50;0.37;;;15.60;99.90;;;;;;4954809;28;20481;-85
2022/06/09 09:24:04;;;;;;;0.40;0.30;;;15.80;99.90;;;;;;4948295;28;20537;-84
2022/06/09 09:26:45;;;;;;;0.40;0.20;;;16.00;99.90;;;;;;4951273;28;20463;-84
2022/06/09 09:29:18;;;;;;;0.40;0.30;;;16.10;99.90;;;;;;4958439;28;20486;-85
2022/06/09 09:31:50;;;;;;;0.40;0.30;;;16.30;99.90;;;;;;4954944;28;20466;-85
2022/06/09 09:34:22;;;;;;;0.40;0.30;;;16.20;99.90;;;;;;4954032;28;20520;-85
2022/06/09 09:36:55;;;;;;;0.40;0.40;;;16.40;99.90;;;;;;4958878;28;20554;-85
2022/06/09 09:39:30;;;;;;;0.40;0.30;;;16.40;99.90;;;;;;4952724;28;20979;-85
2022/06/09 09:42:10;;;;;;;0.37;0.23;;;16.40;99.90;;;;;;4958151;28;20478;-85
2022/06/09 09:44:37;;;;;;;0.50;0.20;;;16.40;99.90;;;;;;4958110;28;20528;-85
2022/06/09 09:47:04;;;;;;;0.40;0.30;;;16.40;99.90;;;;;;4960062;28;20483;-84
2022/06/09 09:49:35;;;;;;;0.40;0.20;;;16.30;99.90;;;;;;4960986;28;20540;-84
2022/06/09 09:52:23;;;;;;;0.30;0.20;;;16.30;99.90;;;;;;4963327;28;20458;-84
2022/06/09 09:54:50;;;;;;;0.50;0.30;;;16.20;99.90;;;;;;4959991;28;20582;-85
2022/06/09 09:57:19;;;;;;;0.30;0.20;;;16.10;99.90;;;;;;4959072;28;21045;-84
2022/06/09 09:59:51;;;;;;;0.30;0.20;;;15.80;99.90;;;;;;4958753;28;20476;-84
2022/06/09 10:08:38;;;;;;;1.37;0.30;;;15.30;99.90;;;;;;4960728;28;20468;-84
2022/06/09 10:13:52;;;;;;;0.40;0.30;;;15.40;99.90;;;;;;4957681;28;20480;-84
2022/06/09 10:16:20;;;;;;;0.40;0.30;;;15.60;99.90;;;;;;4954430;28;20478;-84
2022/06/09 10:18:53;;;;;;;0.40;0.30;;;15.70;99.90;;;;;;4959352;28;20500;-84
2022/06/09 10:21:21;;;;;;;0.60;0.40;;;15.70;99.90;;;;;;4952296;28;20528;-85
2022/06/09 10:23:55;;;;;;;0.37;0.27;;;15.70;99.90;;;;;;4954338;28;20474;-86
2022/06/09 10:26:29;;;;;;;1.00;0.50;;;15.80;99.90;;;;;;4956140;28;20469;-86
2022/06/09 10:29:01;;;;;;;0.30;0.20;;;15.90;99.90;;;;;;4951630;28;20471;-82
2022/06/09 10:31:41;;;;;;;1.73;0.40;;;15.70;99.90;;;;;;4954398;28;20471;-83
2022/06/09 10:34:17;;;;;;;0.93;0.43;;;15.70;99.90;;;;;;4954817;28;20964;-83
2022/06/09 10:36:55;;;;;;;0.60;0.40;;;15.90;99.90;;;;;;4961150;28;20454;-83
2022/06/09 10:39:34;;;;;;;2.03;0.40;;;16.00;99.90;;;;;;4962102;28;20990;-82
2022/06/09 10:42:06;;;;;;;0.40;0.30;;;16.10;99.90;;;;;;4962264;28;20849;-83
2022/06/09 10:44:39;;;;;;;0.40;0.30;;;16.00;99.90;;;;;;4960154;28;21016;-83
2022/06/09 10:56:09;;;;;;;0.50;0.30;;;15.60;99.90;;;;;;4953382;28;20483;-83
2022/06/09 10:58:40;;;;;;;1.47;0.40;;;15.60;99.90;;;;;;4960041;28;20583;-83
2022/06/09 11:01:15;;;;;;;0.63;0.40;;;15.50;99.90;;;;;;4953454;28;20642;-84
2022/06/09 11:03:47;;;;;;;0.50;0.50;;;15.40;99.90;;;;;;4956375;28;20475;-83
2022/06/09 11:06:23;;;;;;;0.40;0.40;;;15.40;99.90;;;;;;4955803;28;20455;-84
2022/06/09 11:09:07;;;;;;;0.60;0.60;;;15.20;99.90;;;;;;4951701;28;20569;-85
2022/06/09 11:11:46;;;;;;;0.50;0.47;;;15.30;99.90;;;;;;4948793;28;20491;-84
2022/06/09 11:14:32;;;;;;;0.93;0.40;;;15.40;99.90;;;;;;4950973;28;20497;-85
2022/06/09 11:17:14;;;;;;;0.87;0.60;;;15.50;99.90;;;;;;4959424;28;20520;-85
2022/06/09 11:19:54;;;;;;;0.80;0.40;;;15.50;99.90;;;;;;4958748;28;20470;-85
2022/06/09 11:22:34;;;;;;;1.10;0.57;;;15.50;99.90;;;;;;4955593;28;21202;-84
2022/06/09 11:25:21;;;;;;;1.10;0.80;;;15.50;99.90;;;;;;4955175;28;20469;-87
2022/06/09 11:27:59;;;;;;;0.67;0.50;;;15.50;99.90;;;;;;4959954;28;20468;-85
2022/06/09 11:30:35;;;;;;;1.07;0.53;;;15.40;99.90;;;;;;4960354;28;20472;-85
2022/06/09 11:33:16;;;;;;;0.50;0.50;;;15.50;99.90;;;;;;4962904;28;20518;-85
2022/06/09 11:35:55;;;;;;;0.60;0.57;;;15.60;99.90;;;;;;4963502;28;20492;-84
2022/06/09 11:38:33;;;;;;;0.57;0.53;;;15.70;99.90;;;;;;4973521;28;20465;-85
2022/06/09 11:41:16;;;;;;;0.63;0.57;;;15.60;99.90;;;;;;4972454;28;20462;-84
2022/06/09 11:43:58;;;;;;;0.80;0.70;;;15.60;99.90;;;;;;4974823;28;20872;-84
2022/06/09 11:46:29;;;;;;;0.97;0.60;;;15.70;99.90;;;;;;4960845;28;20468;-84
2022/06/09 11:49:00;;;;;;;0.50;0.47;;;15.70;99.90;;;;;;4956390;28;20477;-84
2022/06/09 11:51:30;;;;;;;0.70;0.57;;;15.60;99.90;;;;;;4966940;28;20478;-84
2022/06/09 11:54:00;;;;;;;0.70;0.60;;;15.40;99.90;;;;;;4963994;28;20553;-84
2022/06/09 11:56:36;;;;;;;0.90;0.77;;;15.40;99.90;;;;;;4961018;28;20463;-86
2022/06/09 11:59:15;;;;;;;0.67;0.67;;;15.30;99.90;;;;;;4962404;28;20454;-84
2022/06/09 12:02:08;;;;;;;3.33;0.60;;;15.20;99.90;;;;;;4960101;28;20553;-85
2022/06/09 12:05:17;;;;;;;0.53;0.53;;;15.20;99.90;;;;;;4961732;28;20551;-85
2022/06/09 12:08:11;;;;;;;0.60;0.60;;;15.20;99.90;;;;;;4936267;28;20477;-85
2022/06/09 12:10:58;;;;;;;0.60;0.60;;;15.20;99.90;;;;;;4959186;28;20484;-85
2022/06/09 12:13:28;;;;;;;0.80;0.63;;;15.30;99.90;;;;;;4961500;28;20641;-85
2022/06/09 12:16:00;;;;;;;0.60;0.60;;;15.30;99.90;;;;;;4951130;28;21025;-86
2022/06/09 12:18:37;;;;;;;0.60;0.60;;;15.20;99.90;;;;;;4957601;28;21220;-85
2022/06/09 12:21:13;;;;;;;1.10;1.00;;;15.30;99.90;;;;;;4950439;28;20478;-85
2022/06/09 12:23:43;;;;;;;1.07;0.97;;;15.50;99.90;;;;;;4954256;28;20560;-86
2022/06/09 12:26:48;;;;;;;1.10;1.00;;;15.40;99.90;;;;;;4954324;28;20471;-85
2022/06/09 12:29:23;;;;;;;1.27;1.17;;;15.60;99.90;;;;;;4956779;28;20474;-85
2022/06/09 12:32:44;;;;;;;1.20;1.00;;;15.60;99.90;;;;;;4953626;28;21145;-85
2022/06/09 12:35:32;;;;;;;1.03;0.70;;;15.60;99.90;;;;;;4879989;29;22331;-85
2022/06/09 12:38:02;;;;;;;0.90;0.70;;;15.50;99.90;;;;;;4883094;29;21015;-85
2022/06/09 12:40:44;;;;;;;1.87;1.53;;;15.50;99.90;;;;;;4938925;28;20462;-85
2022/06/09 12:43:28;;;;;;;0.60;0.50;;;15.50;99.90;;;;;;4958723;28;20496;-86
2022/06/09 12:46:18;;;;;;;1.17;1.07;;;15.50;99.90;;;;;;4961681;28;20940;-85
2022/06/09 12:48:46;;;;;;;0.70;0.67;;;15.60;99.90;;;;;;4953178;28;20523;-84
2022/06/09 12:51:24;;;;;;;0.70;0.70;;;15.70;99.90;;;;;;4952323;28;20471;-85
2022/06/09 12:54:18;;;;;;;0.93;0.77;;;15.80;99.90;;;;;;4947961;28;20475;-85
2022/06/09 12:56:53;;;;;;;1.13;1.03;;;15.80;99.90;;;;;;4952861;28;20546;-85
2022/06/09 12:59:26;;;;;;;0.70;0.63;;;15.70;99.90;;;;;;4957210;28;20512;-86
2022/06/09 13:01:58;;;;;;;1.00;0.73;;;15.60;99.90;;;;;;4950217;28;20940;-86
2022/06/09 13:04:27;;;;;;;1.20;1.20;;;15.70;99.90;;;;;;4950844;28;20464;-86
2022/06/09 13:06:56;;;;;;;2.03;1.20;;;15.60;99.90;;;;;;4956360;28;20477;-85
2022/06/09 13:09:26;;;;;;;0.80;0.57;;;15.60;99.90;;;;;;4961508;28;21044;-86
2022/06/09 13:14:41;;;;;;;0.80;0.70;;;15.50;99.90;;;;;;4948608;28;20486;-86
2022/06/09 13:17:15;;;;;;;0.70;0.70;;;15.30;99.90;;;;;;4970362;28;20474;-85
2022/06/09 13:19:47;;;;;;;0.70;0.70;;;15.30;99.90;;;;;;4962903;28;20590;-84
2022/06/09 13:22:17;;;;;;;0.80;0.80;;;15.30;99.90;;;;;;4955055;28;20483;-86
2022/06/09 13:24:45;;;;;;;1.43;1.33;;;15.30;99.90;;;;;;4959631;28;20472;-85
2022/06/09 13:27:18;;;;;;;0.70;0.67;;;15.30;99.90;;;;;;4957502;28;20537;-85
2022/06/09 13:30:07;;;;;;;0.63;0.60;;;15.40;99.90;;;;;;4959592;28;20535;-86
2022/06/09 13:32:41;;;;;;;0.73;0.60;;;15.20;99.90;;;;;;4956397;28;20522;-85
2022/06/09 13:35:34;;;;;;;1.13;0.80;;;15.30;99.90;;;;;;4953261;28;20488;-85
2022/06/09 13:38:04;;;;;;;1.23;0.80;;;15.40;99.90;;;;;;4966172;28;20513;-86
2022/06/09 13:40:43;;;;;;;0.60;0.50;;;15.40;99.90;;;;;;4959841;28;20501;-85
2022/06/09 13:43:19;;;;;;;0.70;0.70;;;15.40;99.90;;;;;;4962297;28;21079;-84